< Typhoon 198823 1988 Season Typhoon 198825 >
Typhoon 198824 (NELSON)
General InformationTrack Information on Google MapsDetailed Wind InformationList of All Images || Disaster Info.ResourceGoogle EarthGE AnimationAtom FeedGeoJSON
Detalied Best Track (Time Zone = UTC)
Year Month Day Hour Lat. Long. Pressure (hPa) Wind (kt) Class Image Chart
1988 9 30 18 11.5 139.0 1004 0 2 Image Chart
1988 10 1 00 12.0 138.0 1004 0 2 Image Chart
1988 10 1 06 12.5 137.0 1000 0 2 Image Chart
1988 10 1 12 13.0 136.0 1000 0 2 Image Chart
1988 10 1 18 13.2 135.0 996 40 3 Image Chart
1988 10 2 00 13.5 134.0 992 45 3 Image Chart
1988 10 2 06 13.9 132.9 990 45 3 Image Chart
1988 10 2 12 14.3 131.9 985 50 4 Image Chart
1988 10 2 18 15.0 130.8 980 55 4 Image Chart
1988 10 3 00 15.3 129.5 970 60 4 Image Chart
1988 10 3 06 16.1 128.5 960 70 5 Image Chart
1988 10 3 12 16.8 127.5 950 75 5 Image Chart
1988 10 3 18 17.5 126.5 940 80 5 Image Chart
1988 10 4 00 18.4 125.9 925 90 5 Image Chart
1988 10 4 06 19.5 125.2 915 95 5 Image Chart
1988 10 4 12 20.1 124.7 915 100 5 Image Chart
1988 10 4 18 20.8 124.4 915 100 5 Image Chart
1988 10 5 00 21.4 124.3 915 100 5 Image Chart
1988 10 5 06 21.9 124.4 920 100 5 Image Chart
1988 10 5 12 22.5 125.2 925 100 5 Image Chart
1988 10 5 18 23.4 125.9 930 95 5 Image Chart
1988 10 6 00 24.0 126.7 940 90 5 Image Chart
1988 10 6 06 24.6 127.8 945 85 5 Image Chart
1988 10 6 12 25.1 128.7 950 85 5 Image Chart
1988 10 6 18 25.7 129.7 950 80 5 Image Chart
1988 10 7 00 26.6 130.9 950 80 5 Image Chart
1988 10 7 06 27.6 132.2 950 80 5 Image Chart
1988 10 7 12 28.6 133.6 950 80 5 Image Chart
1988 10 7 18 29.4 134.9 955 80 5 Image Chart
1988 10 8 00 30.4 136.4 955 80 5 Image Chart
1988 10 8 06 31.5 138.4 960 75 5 Image Chart
1988 10 8 12 32.5 140.9 965 70 5 Image Chart
1988 10 8 18 33.4 143.3 970 65 5 Image Chart
1988 10 9 00 35.0 147.0 985 55 4 Image Chart
1988 10 9 06 36.0 152.0 990 0 6 Image Chart
1988 10 9 12 37.0 157.0 992 0 6 Image Chart
1988 10 9 18 38.0 163.0 990 0 6 Image Chart
1988 10 10 00 41.0 169.0 988 0 6 Image Chart
1988 10 10 06 44.0 173.0 980 0 6 Image Chart
1988 10 10 12 46.0 174.0 972 0 6 Image Chart
1988 10 10 18 47.0 174.0 970 0 6 Image Chart
1988 10 11 00 48.0 174.0 970 0 6 Image Chart
1988 10 11 06 49.0 174.0 972 0 6 Image Chart
1988 10 11 12 49.0 174.5 976 0 6 Image Chart
1988 10 11 18 49.0 175.0 980 0 6 Image Chart
1988 10 12 00 49.0 176.0 984 0 6 Image Chart
1988 10 12 06 49.0 177.0 984 0 6 Image Chart
1988 10 12 12 49.0 178.0 988 0 6 Image Chart
1988 10 12 18 49.0 180.0 992 0 6 Image Chart
Japan Meteorological Agency Best Track Data | Correction Date : 1992-10-21
< Typhoon 198823 1988 Season Typhoon 198825 >

Help